Pembroke, Georgia
Current Conditions -  °F | °C
As of 5:15 PM on Sunday 25 Jan 2015 (Local Time) from KCWV Reporting Station
Clear Clear  
Wind Chill: 59°   Ceiling: Unl
Heat Index: 59°   Visibility: 10mi
Dew Point: 34°   Wind: 3mph
Humidity: 39%   Direction: 210°SSW
Pressure: 29.86"   Gusts: NA
Location:  32.14°N, 81.62°W
Report Text: KCWV 252215Z AUTO 21003KT 10SM CLR 15/01 A2986 RMK AO2
Loading
Personal Weather Stations






























Interactive Weather Map New forecast layout! Learn more

10-Day Weather Forecast

Advertisements
Track Severe Weather on mobile